首页
METAR-TAF:

METAR-TAF

机场 :

二月四日国际机场

罗安达, 安哥拉

纬度: 08-51S, 经度: 013-14E, 海拔: 74米

当前天气观测

该预报发布于1小时和5分钟前的13:00 UTC
风速8节,风向西
温度 29°C
湿度 70%
气压 1011 hPa
能见度10公里或以上
多云层高于2300英尺

METAR: FNLU 171300Z 26008KT 9999 BKN023 29/23 Q1011 NOSIG

时间: 15:05 (14:05 UTC)

预报

该预报发布于3小时和20分钟前的10:45 UTC
预报有效从17日的 12点(UTC)到 18日的 18点(UTC)
风速3节,风向多变
能見度: 9000
散云层高于2000英尺
多云层高于2300英尺
短暂存在
从 17日的 14点(UTC)到 17日的 18点(UTC)
风速12节,风向西
能见度10公里或以上
少量云层高于1600英尺
散云层高于2200英尺
多云层高于2500英尺
成为
从 17日的 20点(UTC)到 17日的 22点(UTC)
风速6节,风向
少量云层高于2000英尺
散云层高于2300英尺
短暂存在
从 17日的 23点(UTC)到 18日的 03点(UTC)
风速3节,风向多变
能見度: 8000
少量云层高于1800英尺
多云层高于2500英尺

TAF: FNLU 171045Z 1712/1818 VRB03KT 9000 SCT020 BKN023 TEMPO 1714/1718 26012KT 9999 FEW016 SCT022 BKN025 BECMG 1720/1722 19006KT FEW020 SCT023 TEMPO 1723/1803 VRB03KT 8000 FEW018 BKN025

超过4000个机场的气象观测和天气预报(METAR&TAF报告)。

可查询的气象台以黄色和红色小点在地图上表示。

将鼠标移到小点上方,可查看气象台名称。

然后点击查看天气观测和预报。

如需切换地图:点击带黑十字的绿色按钮放大地图;点击带横线的绿色按钮缩小地图;或者点击绿色箭头查看邻近地区的地图。


METAR-TAF: